createdAt,value
2022-09-17T00:00:51.397Z,4.30
2022-09-17T00:03:19.603Z,3.73
2022-09-17T00:05:48.608Z,4.20
2022-09-17T00:08:16.336Z,3.83
2022-09-17T00:10:44.991Z,4.60
2022-09-17T00:13:12.667Z,4.60
2022-09-17T00:15:40.998Z,4.47
2022-09-17T00:18:08.724Z,4.60
2022-09-17T00:20:39.257Z,4.17
2022-09-17T00:23:08.819Z,4.03
2022-09-17T00:25:38.554Z,4.10
2022-09-17T00:28:06.386Z,5.03
2022-09-17T00:30:34.206Z,4.50
2022-09-17T00:33:01.815Z,4.50
2022-09-17T00:35:29.344Z,5.00
2022-09-17T00:37:57.330Z,4.90
2022-09-17T00:40:26.340Z,4.00
2022-09-17T00:42:54.112Z,4.50
2022-09-17T00:45:21.878Z,4.70
2022-09-17T00:47:51.879Z,4.30
2022-09-17T00:50:22.415Z,5.67
2022-09-17T00:52:51.847Z,5.20
2022-09-17T00:55:26.523Z,5.10
2022-09-17T00:57:56.445Z,6.60
2022-09-17T01:00:24.095Z,8.40
2022-09-17T01:02:53.561Z,5.97
2022-09-17T01:05:22.325Z,4.70
2022-09-17T01:07:56.839Z,4.97
2022-09-17T01:10:32.446Z,4.43
2022-09-17T01:13:07.419Z,5.70
2022-09-17T01:24:24.917Z,4.20
2022-09-17T01:27:12.832Z,4.33
2022-09-17T01:29:49.617Z,4.47
2022-09-17T01:32:21.084Z,5.03
2022-09-17T01:34:54.832Z,5.00
2022-09-17T01:37:30.810Z,4.30
2022-09-17T01:40:02.119Z,4.10
2022-09-17T01:42:36.152Z,4.20
2022-09-17T01:45:05.992Z,4.40
2022-09-17T01:47:36.582Z,4.30
2022-09-17T01:50:07.435Z,4.00
2022-09-17T01:52:36.937Z,4.00
2022-09-17T01:55:07.136Z,4.13
2022-09-17T01:57:37.127Z,4.77
2022-09-17T02:00:07.042Z,4.27
2022-09-17T02:02:44.005Z,4.00
2022-09-17T02:05:13.268Z,4.13
2022-09-17T02:07:42.934Z,4.33
2022-09-17T02:10:12.292Z,4.27
2022-09-17T02:12:41.150Z,4.20
2022-09-17T02:15:12.159Z,3.93
2022-09-17T02:17:40.903Z,4.00
2022-09-17T02:20:10.190Z,4.70
2022-09-17T02:22:40.618Z,4.40
2022-09-17T02:25:11.447Z,4.80
2022-09-17T02:27:45.194Z,4.23
2022-09-17T02:30:12.815Z,4.73
2022-09-17T02:32:40.303Z,5.10
2022-09-17T02:35:10.486Z,5.43
2022-09-17T02:37:38.008Z,4.53
2022-09-17T02:40:06.543Z,5.30
2022-09-17T02:42:36.663Z,5.30
2022-09-17T02:45:07.643Z,5.20
2022-09-17T02:47:40.389Z,5.17
2022-09-17T02:50:16.893Z,4.73
2022-09-17T02:52:50.351Z,5.30
2022-09-17T02:55:20.003Z,5.13
2022-09-17T02:57:48.869Z,5.37
2022-09-17T03:00:17.954Z,5.50
2022-09-17T03:02:47.439Z,5.00
2022-09-17T03:05:18.084Z,4.80
2022-09-17T03:07:45.906Z,5.67
2022-09-17T03:10:15.792Z,5.50
2022-09-17T03:12:43.587Z,5.00
2022-09-17T03:15:11.309Z,5.23
2022-09-17T03:17:39.026Z,4.63
2022-09-17T03:20:07.003Z,5.00
2022-09-17T03:22:36.464Z,5.00
2022-09-17T03:25:04.642Z,5.03
2022-09-17T03:27:32.126Z,5.30
2022-09-17T03:29:59.610Z,5.03
2022-09-17T03:32:27.694Z,4.40
2022-09-17T03:34:55.675Z,5.00
2022-09-17T03:37:23.311Z,5.03
2022-09-17T03:39:52.178Z,5.10
2022-09-17T03:42:19.895Z,4.10
2022-09-17T03:44:47.379Z,3.83
2022-09-17T03:47:16.871Z,3.90
2022-09-17T03:49:44.539Z,3.60
2022-09-17T03:52:12.051Z,4.10
2022-09-17T03:54:39.939Z,4.30
2022-09-17T03:57:08.760Z,3.97
2022-09-17T03:59:36.485Z,3.90
2022-09-17T04:02:04.399Z,3.40
2022-09-17T04:04:32.459Z,3.47
2022-09-17T04:06:59.931Z,4.10
2022-09-17T04:09:27.839Z,4.03
2022-09-17T04:11:55.648Z,3.90
2022-09-17T04:14:24.754Z,3.33
2022-09-17T04:16:52.518Z,3.10
2022-09-17T04:19:20.131Z,3.27
2022-09-17T04:21:47.652Z,3.70
2022-09-17T04:24:15.712Z,3.47
2022-09-17T04:26:43.363Z,3.37
2022-09-17T04:29:11.135Z,3.20
2022-09-17T04:31:40.411Z,3.33
2022-09-17T04:34:08.131Z,2.90
2022-09-17T04:36:35.578Z,3.47
2022-09-17T04:39:03.401Z,3.73
2022-09-17T04:41:30.897Z,2.90
2022-09-17T04:43:58.617Z,3.33
2022-09-17T04:46:26.478Z,3.13
2022-09-17T04:48:55.495Z,3.50
2022-09-17T04:51:22.967Z,2.50
2022-09-17T04:53:50.929Z,2.80
2022-09-17T04:56:18.438Z,3.00
2022-09-17T04:58:46.005Z,3.40
2022-09-17T05:01:13.978Z,3.47
2022-09-17T05:03:41.539Z,3.60
2022-09-17T05:06:10.509Z,3.57
2022-09-17T05:08:38.027Z,2.90
2022-09-17T05:11:05.754Z,3.60
2022-09-17T05:13:33.355Z,3.13
2022-09-17T05:16:01.308Z,2.80
2022-09-17T05:18:28.957Z,3.67
2022-09-17T05:20:56.431Z,2.97
2022-09-17T05:23:25.710Z,3.43
2022-09-17T05:25:53.783Z,3.70
2022-09-17T05:28:21.579Z,3.07
2022-09-17T05:30:49.087Z,3.70
2022-09-17T05:33:16.622Z,3.50
2022-09-17T05:35:45.250Z,3.13
2022-09-17T05:38:13.861Z,3.30
2022-09-17T05:40:42.673Z,3.17
2022-09-17T05:43:10.385Z,3.47
2022-09-17T05:45:38.395Z,3.20
2022-09-17T05:48:07.109Z,3.93
2022-09-17T05:50:34.851Z,3.70
2022-09-17T05:53:05.124Z,3.10
2022-09-17T05:55:32.690Z,2.83
2022-09-17T05:58:01.813Z,3.23
2022-09-17T06:00:30.027Z,3.03
2022-09-17T06:02:57.954Z,3.23
2022-09-17T06:05:25.611Z,3.50
2022-09-17T06:07:53.240Z,3.90
2022-09-17T06:10:20.808Z,3.60
2022-09-17T06:12:48.364Z,4.20
2022-09-17T06:15:17.811Z,4.20
2022-09-17T06:17:45.269Z,4.50
2022-09-17T06:20:12.806Z,4.30
2022-09-17T06:22:41.210Z,5.07
2022-09-17T06:25:09.043Z,5.30
2022-09-17T06:27:36.631Z,5.30
2022-09-17T06:30:05.134Z,5.10
2022-09-17T06:32:34.611Z,4.80
2022-09-17T06:35:03.150Z,5.67
2022-09-17T06:37:31.515Z,5.30
2022-09-17T06:39:59.383Z,4.77
2022-09-17T06:42:27.211Z,5.00
2022-09-17T06:44:55.322Z,4.37
2022-09-17T06:47:24.988Z,5.70
2022-09-17T06:49:57.129Z,5.13
2022-09-17T06:52:24.799Z,4.70
2022-09-17T06:54:52.243Z,4.40
2022-09-17T06:57:20.906Z,4.83
2022-09-17T06:59:49.954Z,4.97
2022-09-17T07:02:17.838Z,4.57
2022-09-17T07:04:45.626Z,5.03
2022-09-17T07:07:14.669Z,4.70
2022-09-17T07:13:54.810Z,4.70
2022-09-17T07:16:22.429Z,4.57
2022-09-17T07:18:49.867Z,4.63
2022-09-17T07:21:37.651Z,4.27
2022-09-17T07:24:06.977Z,4.37
2022-09-17T07:26:34.551Z,3.73
2022-09-17T07:29:02.205Z,3.30
2022-09-17T07:31:29.814Z,4.37
2022-09-17T07:33:57.438Z,4.07
2022-09-17T07:40:11.424Z,4.30
2022-09-17T07:42:39.033Z,3.90
2022-09-17T07:45:07.593Z,3.80
2022-09-17T07:47:39.202Z,3.57
2022-09-17T07:50:07.830Z,2.83
2022-09-17T07:52:35.502Z,2.97
2022-09-17T07:55:02.985Z,3.03
2022-09-17T07:57:35.441Z,4.03
2022-09-17T08:00:04.258Z,3.00
2022-09-17T08:02:39.290Z,3.37
2022-09-17T08:05:07.163Z,3.10
2022-09-17T08:07:35.110Z,4.00
2022-09-17T08:10:05.647Z,3.80
2022-09-17T08:12:34.550Z,3.10
2022-09-17T08:15:02.538Z,3.53
2022-09-17T08:17:30.407Z,3.20
2022-09-17T08:19:57.990Z,3.40
2022-09-17T08:22:25.532Z,3.33
2022-09-17T08:28:56.354Z,3.20
2022-09-17T08:31:24.902Z,2.73
2022-09-17T08:33:52.452Z,2.93
2022-09-17T08:36:21.299Z,2.87
2022-09-17T08:38:49.726Z,2.70
2022-09-17T08:41:24.488Z,2.90
2022-09-17T08:43:59.584Z,3.03
2022-09-17T08:46:29.881Z,2.80
2022-09-17T08:49:02.653Z,2.87
2022-09-17T08:51:36.947Z,4.30
2022-09-17T08:54:08.307Z,2.63
2022-09-17T08:56:38.206Z,4.27
2022-09-17T08:59:12.983Z,4.10
2022-09-17T09:01:46.450Z,2.83
2022-09-17T09:04:24.723Z,3.23
2022-09-17T09:06:53.954Z,2.33
2022-09-17T09:09:23.506Z,3.20
2022-09-17T09:12:02.598Z,2.60
2022-09-17T09:14:32.567Z,2.40
2022-09-17T09:17:04.612Z,2.80
2022-09-17T09:19:34.902Z,3.67
2022-09-17T09:22:04.471Z,2.60
2022-09-17T09:24:37.453Z,3.20
2022-09-17T09:27:12.667Z,3.37
2022-09-17T09:29:43.090Z,2.90
2022-09-17T09:32:17.044Z,3.03
2022-09-17T09:34:44.833Z,3.57
2022-09-17T09:37:15.548Z,3.40
2022-09-17T09:39:46.200Z,2.50
2022-09-17T09:42:17.890Z,2.60
2022-09-17T09:44:47.891Z,2.63
2022-09-17T09:47:24.061Z,3.10
2022-09-17T09:50:02.460Z,2.80
2022-09-17T09:52:40.031Z,2.77
2022-09-17T09:55:17.580Z,3.20
2022-09-17T09:57:47.948Z,2.80
2022-09-17T10:00:27.160Z,3.73
2022-09-17T10:02:58.115Z,4.03
2022-09-17T10:05:26.509Z,3.70
2022-09-17T10:07:55.182Z,5.60
2022-09-17T10:10:24.241Z,5.10
2022-09-17T10:13:08.033Z,4.40
2022-09-17T10:15:36.347Z,3.70
2022-09-17T10:18:17.209Z,3.00
2022-09-17T10:20:52.704Z,5.63
2022-09-17T10:23:45.124Z,104.87
2022-09-17T10:26:21.404Z,82.87
2022-09-17T10:28:51.919Z,57.30
2022-09-17T10:31:20.507Z,56.27
2022-09-17T10:33:58.021Z,81.53
2022-09-17T10:36:40.644Z,19.93
2022-09-17T10:39:27.149Z,30.53
2022-09-17T10:41:55.586Z,46.47
2022-09-17T10:44:24.079Z,19.40
2022-09-17T10:46:52.357Z,19.53
2022-09-17T10:49:26.129Z,3.67
2022-09-17T10:52:04.763Z,4.30
2022-09-17T10:54:40.589Z,2.63
2022-09-17T10:57:10.737Z,3.33
2022-09-17T10:59:44.428Z,2.80
2022-09-17T11:02:26.869Z,2.60
2022-09-17T11:05:02.358Z,2.10
2022-09-17T11:07:45.423Z,2.50
2022-09-17T11:10:15.009Z,2.33
2022-09-17T11:12:55.417Z,2.70
2022-09-17T11:15:29.651Z,2.50
2022-09-17T11:18:16.770Z,2.70
2022-09-17T11:20:54.093Z,2.30
2022-09-17T11:23:26.390Z,2.20
2022-09-17T11:26:00.270Z,2.30
2022-09-17T11:28:36.540Z,2.33
2022-09-17T11:31:09.468Z,2.10
2022-09-17T11:33:48.217Z,1.90
2022-09-17T11:36:22.212Z,2.00
2022-09-17T11:38:50.863Z,2.00
2022-09-17T11:41:20.256Z,1.90
2022-09-17T11:43:50.377Z,2.10
2022-09-17T11:46:20.796Z,1.87
2022-09-17T11:48:49.800Z,2.13
2022-09-17T11:51:28.776Z,2.30
2022-09-17T11:53:59.770Z,2.00
2022-09-17T11:56:31.612Z,2.57
2022-09-17T11:59:01.970Z,2.50
2022-09-17T12:01:32.235Z,2.00
2022-09-17T12:04:00.845Z,1.90
2022-09-17T12:06:35.141Z,2.10
2022-09-17T12:09:05.789Z,2.20
2022-09-17T12:11:37.519Z,2.23
2022-09-17T12:14:07.184Z,1.53
2022-09-17T12:16:36.909Z,1.67
2022-09-17T12:19:07.790Z,1.80
2022-09-17T12:21:38.589Z,1.63
2022-09-17T12:24:13.027Z,1.53
2022-09-17T12:26:58.454Z,1.97
2022-09-17T12:29:32.583Z,1.63
2022-09-17T12:32:04.720Z,1.70
2022-09-17T12:34:41.587Z,1.73
2022-09-17T12:37:11.894Z,1.63
2022-09-17T12:39:54.519Z,1.90
2022-09-17T12:42:30.091Z,1.80
2022-09-17T12:45:03.709Z,1.57
2022-09-17T12:47:49.665Z,1.67
2022-09-17T12:50:20.485Z,1.40
2022-09-17T12:52:57.468Z,1.33
2022-09-17T12:55:42.808Z,1.27
2022-09-17T12:58:18.511Z,1.37
2022-09-17T13:00:49.333Z,1.33
2022-09-17T13:03:20.697Z,1.40
2022-09-17T13:05:56.255Z,2.20
2022-09-17T13:08:40.037Z,2.17
2022-09-17T13:11:15.890Z,2.30
2022-09-17T13:13:49.501Z,2.23
2022-09-17T13:16:20.766Z,1.70
2022-09-17T13:19:14.909Z,1.50
2022-09-17T13:21:45.727Z,1.70
2022-09-17T13:24:18.363Z,1.63
2022-09-17T13:26:46.896Z,1.10
2022-09-17T13:29:34.462Z,1.40
2022-09-17T13:32:02.328Z,1.20
2022-09-17T13:34:31.049Z,1.60
2022-09-17T13:36:59.350Z,1.60
2022-09-17T13:39:36.304Z,1.30
2022-09-17T13:42:06.651Z,1.47
2022-09-17T13:44:35.753Z,1.40
2022-09-17T13:47:10.512Z,1.47
2022-09-17T13:49:44.376Z,1.47
2022-09-17T13:52:12.369Z,1.30
2022-09-17T13:54:41.226Z,2.13
2022-09-17T13:57:10.662Z,1.20
2022-09-17T13:59:39.023Z,1.60
2022-09-17T14:02:35.104Z,1.47
2022-09-17T14:05:24.706Z,1.30
2022-09-17T14:07:55.490Z,1.47
2022-09-17T14:10:35.902Z,1.30
2022-09-17T14:13:18.382Z,1.70
2022-09-17T14:16:02.010Z,2.10
2022-09-17T14:18:50.482Z,1.43
2022-09-17T14:21:24.715Z,1.53
2022-09-17T14:23:55.498Z,1.97
2022-09-17T14:26:30.199Z,2.00
2022-09-17T14:29:04.440Z,2.10
2022-09-17T14:31:33.681Z,1.83
2022-09-17T14:34:03.034Z,1.90
2022-09-17T14:36:32.069Z,1.40
2022-09-17T14:39:00.103Z,1.50
2022-09-17T14:41:33.341Z,1.50
2022-09-17T14:44:03.058Z,1.47
2022-09-17T14:46:32.751Z,1.40
2022-09-17T14:49:14.427Z,1.60
2022-09-17T14:51:42.066Z,1.83
2022-09-17T14:54:17.284Z,2.00
2022-09-17T14:56:48.709Z,1.60
2022-09-17T14:59:20.110Z,1.20
2022-09-17T15:01:49.350Z,1.37
2022-09-17T15:04:24.591Z,1.50
2022-09-17T15:06:52.205Z,1.20
2022-09-17T15:09:24.057Z,1.27
2022-09-17T15:11:54.334Z,1.00
2022-09-17T15:14:23.050Z,0.67
2022-09-17T15:16:52.179Z,0.80
2022-09-17T15:19:23.733Z,0.80
2022-09-17T15:21:52.904Z,0.90
2022-09-17T15:24:23.693Z,0.60
2022-09-17T15:26:52.896Z,0.80
2022-09-17T15:29:24.028Z,0.83
2022-09-17T15:31:51.674Z,1.00
2022-09-17T15:34:19.294Z,1.03
2022-09-17T15:37:02.077Z,0.77
2022-09-17T15:39:30.219Z,0.77
2022-09-17T15:41:58.046Z,0.90
2022-09-17T15:44:31.666Z,0.77
2022-09-17T15:47:22.086Z,0.90
2022-09-17T15:50:05.433Z,0.90
2022-09-17T15:52:35.533Z,1.00
2022-09-17T15:55:03.067Z,0.97
2022-09-17T15:57:31.558Z,0.87
2022-09-17T16:00:12.579Z,1.60
2022-09-17T16:02:40.369Z,1.80
2022-09-17T16:05:34.886Z,0.80
2022-09-17T16:08:19.293Z,1.27
2022-09-17T16:10:46.879Z,1.00
2022-09-17T16:13:14.439Z,0.93
2022-09-17T16:15:43.803Z,1.07
2022-09-17T16:18:13.321Z,1.57
2022-09-17T16:20:41.054Z,0.90
2022-09-17T16:23:08.812Z,1.10
2022-09-17T16:25:37.851Z,1.20
2022-09-17T16:28:07.557Z,1.07
2022-09-17T16:30:35.603Z,1.10
2022-09-17T16:33:06.717Z,1.00
2022-09-17T16:35:34.403Z,0.83
2022-09-17T16:38:02.381Z,1.10
2022-09-17T16:40:31.170Z,0.80
2022-09-17T16:43:00.793Z,1.17
2022-09-17T16:45:29.277Z,1.07
2022-09-17T16:47:56.853Z,1.20
2022-09-17T16:50:25.992Z,1.73
2022-09-17T16:52:53.611Z,1.50
2022-09-17T16:55:21.686Z,2.00
2022-09-17T16:57:49.279Z,1.23
2022-09-17T17:00:19.105Z,1.00
2022-09-17T17:02:52.252Z,1.20
2022-09-17T17:05:20.082Z,0.93
2022-09-17T17:07:49.127Z,1.10
2022-09-17T17:10:17.075Z,1.10
2022-09-17T17:12:44.843Z,1.07
2022-09-17T17:15:12.602Z,1.07
2022-09-17T17:17:40.326Z,1.30
2022-09-17T17:20:09.109Z,1.10
2022-09-17T17:22:37.774Z,1.37
2022-09-17T17:25:07.229Z,0.90
2022-09-17T17:27:35.471Z,1.60
2022-09-17T17:30:05.580Z,1.83
2022-09-17T17:32:33.636Z,1.50
2022-09-17T17:35:01.291Z,1.60
2022-09-17T17:37:29.442Z,1.30
2022-09-17T17:39:58.200Z,1.60
2022-09-17T17:42:27.127Z,1.57
2022-09-17T17:44:55.548Z,1.57
2022-09-17T17:47:23.078Z,1.40
2022-09-17T17:49:50.557Z,1.07
2022-09-17T17:52:18.618Z,1.10
2022-09-17T17:54:46.116Z,0.90
2022-09-17T17:57:13.715Z,1.00
2022-09-17T17:59:42.583Z,0.90
2022-09-17T18:02:10.609Z,0.80
2022-09-17T18:04:38.305Z,1.20
2022-09-17T18:07:06.183Z,1.30
2022-09-17T18:09:33.656Z,1.23
2022-09-17T18:12:01.463Z,1.17
2022-09-17T18:14:29.007Z,1.10
2022-09-17T18:16:57.890Z,1.30
2022-09-17T18:19:25.436Z,1.53
2022-09-17T18:21:55.017Z,1.37
2022-09-17T18:24:22.680Z,2.40
2022-09-17T18:26:50.211Z,2.60
2022-09-17T18:29:18.341Z,2.67
2022-09-17T18:31:45.987Z,3.23
2022-09-17T18:34:16.342Z,1.60
2022-09-17T18:36:50.814Z,1.90
2022-09-17T18:42:08.902Z,3.07
2022-09-17T18:44:36.387Z,1.30
2022-09-17T18:47:04.126Z,2.10
2022-09-17T18:49:32.901Z,2.70
2022-09-17T18:52:01.893Z,1.80
2022-09-17T18:54:29.355Z,1.83
2022-09-17T18:56:57.061Z,1.47
2022-09-17T18:59:24.591Z,1.20
2022-09-17T19:01:52.336Z,1.90
2022-09-17T19:04:20.060Z,1.27
2022-09-17T19:06:47.665Z,1.80
2022-09-17T19:09:16.541Z,1.57
2022-09-17T19:11:44.310Z,2.00
2022-09-17T19:14:11.871Z,2.20
2022-09-17T19:16:39.478Z,1.70
2022-09-17T19:19:07.632Z,2.30
2022-09-17T19:21:35.200Z,2.03
2022-09-17T19:24:04.515Z,2.17
2022-09-17T19:26:33.669Z,2.20
2022-09-17T19:29:02.659Z,1.80
2022-09-17T19:31:30.400Z,3.10
2022-09-17T19:33:59.735Z,2.80
2022-09-17T19:36:27.357Z,4.10
2022-09-17T19:38:55.227Z,2.70
2022-09-17T19:41:23.955Z,3.90
2022-09-17T19:43:53.372Z,1.67
2022-09-17T19:46:22.331Z,2.67
2022-09-17T19:48:50.857Z,2.30
2022-09-17T19:51:18.775Z,2.90
2022-09-17T19:53:47.612Z,2.20
2022-09-17T19:56:16.303Z,1.90
2022-09-17T19:58:43.866Z,2.90
2022-09-17T20:01:13.166Z,4.00
2022-09-17T20:03:41.435Z,3.90
2022-09-17T20:06:10.176Z,3.20
2022-09-17T20:08:43.489Z,3.50
2022-09-17T20:11:13.962Z,3.60
2022-09-17T20:13:41.446Z,2.43
2022-09-17T20:16:10.225Z,2.33
2022-09-17T20:18:39.541Z,3.70
2022-09-17T20:21:07.715Z,3.60
2022-09-17T20:23:35.223Z,3.00
2022-09-17T20:26:03.364Z,2.90
2022-09-17T20:28:30.859Z,3.30
2022-09-17T20:31:02.395Z,4.40
2022-09-17T20:33:32.635Z,4.30
2022-09-17T20:36:02.089Z,2.70
2022-09-17T20:41:19.793Z,3.10
2022-09-17T20:43:48.375Z,2.97
2022-09-17T20:46:16.309Z,3.27
2022-09-17T20:48:44.114Z,3.70
2022-09-17T20:51:14.203Z,3.40
2022-09-17T20:53:42.028Z,3.20
2022-09-17T20:56:10.709Z,3.00
2022-09-17T20:58:45.272Z,3.20
2022-09-17T21:01:14.881Z,3.00
2022-09-17T21:03:44.205Z,3.23
2022-09-17T21:06:18.610Z,4.70
2022-09-17T21:08:46.562Z,3.30
2022-09-17T21:11:14.175Z,6.00
2022-09-17T21:13:42.666Z,5.20
2022-09-17T21:16:10.611Z,5.13
2022-09-17T21:18:59.946Z,3.20
2022-09-17T21:21:29.202Z,3.20
2022-09-17T21:24:01.275Z,3.60
2022-09-17T21:26:29.073Z,3.60
2022-09-17T21:28:57.350Z,3.43
2022-09-17T21:31:31.748Z,3.50
2022-09-17T21:34:00.806Z,3.67
2022-09-17T21:36:31.266Z,3.77
2022-09-17T21:39:01.030Z,3.90
2022-09-17T21:41:28.830Z,4.87
2022-09-17T21:43:56.390Z,4.43
2022-09-17T21:46:25.305Z,6.40
2022-09-17T21:48:53.498Z,4.27
2022-09-17T21:51:22.537Z,3.53
2022-09-17T21:53:52.767Z,3.30
2022-09-17T21:56:21.099Z,4.37
2022-09-17T21:58:51.201Z,3.80
2022-09-17T22:01:19.720Z,3.50
2022-09-17T22:03:47.300Z,3.60
2022-09-17T22:06:16.490Z,2.90
2022-09-17T22:08:44.457Z,3.00
2022-09-17T22:11:14.398Z,3.13
2022-09-17T22:13:42.621Z,3.27
2022-09-17T22:16:12.243Z,3.10
2022-09-17T22:18:39.897Z,3.40
2022-09-17T22:21:17.413Z,2.87
2022-09-17T22:23:45.027Z,3.03
2022-09-17T22:26:13.871Z,3.23
2022-09-17T22:28:41.520Z,3.73
2022-09-17T22:31:10.114Z,3.00
2022-09-17T22:33:39.174Z,4.13
2022-09-17T22:36:07.835Z,3.60
2022-09-17T22:38:35.989Z,2.63
2022-09-17T22:41:04.562Z,3.57
2022-09-17T22:43:33.471Z,3.80
2022-09-17T22:46:00.953Z,3.63
2022-09-17T22:48:28.949Z,3.27
2022-09-17T22:50:56.444Z,4.23
2022-09-17T22:53:24.125Z,3.70
2022-09-17T22:55:55.111Z,4.60
2022-09-17T22:58:24.427Z,7.30
2022-09-17T23:00:54.748Z,4.50
2022-09-17T23:03:22.432Z,4.50
2022-09-17T23:05:50.287Z,4.47
2022-09-17T23:08:19.910Z,4.30
2022-09-17T23:10:47.548Z,7.00
2022-09-17T23:13:15.800Z,4.50
2022-09-17T23:15:44.389Z,4.30
2022-09-17T23:18:13.712Z,3.97
2022-09-17T23:20:41.770Z,4.53
2022-09-17T23:23:09.721Z,4.37
2022-09-17T23:25:37.349Z,3.50
2022-09-17T23:28:05.101Z,4.00
2022-09-17T23:30:32.606Z,3.80
2022-09-17T23:33:00.409Z,4.10
2022-09-17T23:35:29.267Z,3.30
2022-09-17T23:37:56.974Z,3.70
2022-09-17T23:40:28.503Z,3.57
2022-09-17T23:42:56.810Z,3.73
2022-09-17T23:45:24.464Z,3.10
2022-09-17T23:47:52.402Z,3.63
2022-09-17T23:50:20.091Z,3.27
2022-09-17T23:52:48.987Z,3.57
2022-09-17T23:55:16.539Z,3.10
2022-09-17T23:57:44.398Z,3.50
